Portada
METAR-TAF:

METAR-TAF

Aeroports :

LaGrange-Callaway Airport

LaGrange, Geòrgia, Estats Units d'Amèrica

latitud: 33-00-32N, longitud: 085-04-21W, altitud: 211 m

Observació

L'informe es va fer fa 29 minuts, a les 15:35 UTC
Vent 6 kt del Est, variant entre Est/Nord-Est i Sud-Est
Temperatura 26°C
Humitat 54%
Pressió 1023 hPa
Visibilitat: 16.1 km
Núvols disperses a una alçada de 3600 ft

METAR: KLGC 011535Z AUTO 10006KT 070V130 10SM SCT036 26/16 A3021 RMK AO2 T02600160

Hora: 12:04 (16:04 UTC)


TAF: manca

Observacions i pronòstics meteorològics de més de 4000 aeroports (METAR i TAF).

Les estacions disponibles són els punts grocs i vermells al mapa.

Posi el ratolí al punt desitjat per veure el nom de l'estació.

Feu clic per veure les observacions i els pronòstics meteorològics.

Per canviar el mapa: feu clic els botons verds amb una creu de color negre per apropar; al botó verd amb un guió per allunyar la imatge; o en les fletxes verdes per a mapes adjacents.


METAR-TAF: